Time;durP1;ratioP1;P1;durP2;ratioP2;P2;SDS_P1;SDS_P2;PMS_P1;PMS_P2;Temp;Humidity;BMP_temperature;BMP_pressure;BME280_temperature;BME280_humidity;BME280_pressure;Samples;Min_cycle;Max_cycle;Signal;HPM_P1;HPM_P2
2024/03/19 00:00:59;;;;;;;;;;;;;;;6.66;100.00;99776.47;4993841;28;19977;-88
2024/03/19 00:03:24;;;;;;;;;;;;;;;6.65;100.00;99769.44;4994703;28;19926;-88
2024/03/19 00:05:52;;;;;;;;;;;;;;;7.49;100.00;99768.81;4976894;28;19990;-91
2024/03/19 00:08:17;;;;;;;;;;;;;;;7.74;100.00;99763.63;4976944;28;19922;-86
2024/03/19 08:58:04;;;;;;;;;;;;;;;7.23;100.00;99920.69;5456717;23;20361;-88
2024/03/19 09:00:30;;;;;;;;;;;;;;;7.25;100.00;99916.22;4993315;28;19973;-89
2024/03/19 09:02:56;;;;;;;;;;;;;;;7.33;100.00;99910.75;4993828;28;19993;-89
2024/03/19 09:05:21;;;;;;;;;;;;;;;7.32;100.00;99927.47;4976090;28;20280;-88
2024/03/19 09:07:47;;;;;;;;;;;;;;;7.39;100.00;99922.91;4993740;28;19914;-85
2024/03/19 09:10:12;;;;;;;;;;;;;;;10.87;100.00;99924.13;4970346;28;20352;-90
2024/03/19 09:12:38;;;;;;;;;;;;;;;9.34;100.00;99913.25;4990177;28;19957;-91
2024/03/19 09:15:08;;;;;;;;;;;;;;;8.09;100.00;99927.91;4976195;28;19922;-88
2024/03/19 09:17:33;;;;;;;;;;;;;;;7.89;100.00;99927.63;4993489;28;20004;-87
2024/03/19 09:19:58;;;;;;;;;;;;;;;7.85;100.00;99926.88;4992973;28;20008;-85
2024/03/19 09:22:24;;;;;;;;;;;;;;;7.90;100.00;99934.66;4976132;28;19928;-85
2024/03/19 09:24:49;;;;;;;;;;;;;;;7.86;100.00;99930.38;4992858;28;19922;-87
2024/03/19 09:27:14;;;;;;;;;;;;;;;10.16;100.00;99931.38;4992146;28;20407;-83
2024/03/19 09:29:40;;;;;;;;;;;;;;;10.04;100.00;99922.16;4994182;28;19922;-92
2024/03/19 09:32:06;;;;;;;;;;;;;;;9.21;100.00;99926.03;4993225;28;19926;-89
2024/03/19 09:34:31;;;;;;;;;;;;;;;8.54;100.00;99924.75;4992974;28;19922;-87
2024/03/19 09:36:57;;;;;;;;;;;;;;;8.28;100.00;99922.03;4993905;28;19928;-88
2024/03/19 09:39:22;;;;;;;;;;;;;;;8.18;100.00;99925.00;4995610;28;20280;-88
2024/03/19 09:42:02;;;;;;;;;;;;;;;8.11;100.00;99926.06;4974295;28;19925;-87
2024/03/19 09:44:28;;;;;;;;;;;;;;;8.07;100.00;99919.16;4992267;28;19929;-87
2024/03/19 09:46:55;;;;;;;;;;;;;;;8.07;100.00;99913.00;4993026;28;19926;-86
2024/03/19 09:49:21;;;;;;;;;;;;;;;8.07;100.00;99913.88;4992817;28;20308;-88
2024/03/19 09:51:48;;;;;;;;;;;;;;;8.05;100.00;99915.69;4991655;28;19921;-88
2024/03/19 09:54:16;;;;;;;;;;;;;;;8.03;100.00;99916.69;4993098;28;19984;-85
2024/03/19 09:56:46;;;;;;;;;;;;;;;8.05;100.00;99923.63;4991984;28;19928;-88
2024/03/19 09:59:13;;;;;;;;;;;;;;;8.01;100.00;99919.34;4992595;28;19926;-86
2024/03/19 10:01:40;;;;;;;;;;;;;;;8.06;100.00;99920.06;4991220;28;20444;-89
2024/03/19 10:04:12;;;;;;;;;;;;;;;8.04;100.00;99921.91;4975212;28;20403;-88
2024/03/19 10:06:37;;;;;;;;;;;;;;;8.06;100.00;99922.72;4992044;28;19921;-85
2024/03/19 10:09:05;;;;;;;;;;;;;;;8.06;100.00;99914.81;4992731;28;20335;-85
2024/03/19 10:11:30;;;;;;;;;;;;;;;8.07;100.00;99915.66;4990988;28;20273;-85
2024/03/19 10:13:56;;;;;;;;;;;;;;;8.09;100.00;99914.72;4992390;28;19972;-86
2024/03/19 10:16:21;;;;;;;;;;;;;;;8.03;100.00;99917.53;4993754;28;20369;-86
2024/03/19 10:18:47;;;;;;;;;;;;;;;8.05;100.00;99906.94;4975368;28;19988;-86
2024/03/19 10:21:13;;;;;;;;;;;;;;;8.06;100.00;99916.56;4992697;28;19917;-86
2024/03/19 10:23:39;;;;;;;;;;;;;;;8.08;100.00;99906.84;4992407;28;19928;-85
2024/03/19 10:26:04;;;;;;;;;;;;;;;8.08;100.00;99902.41;4975113;28;19933;-86
2024/03/19 10:28:32;;;;;;;;;;;;;;;8.11;100.00;99904.97;4991629;28;20262;-84
2024/03/19 10:30:57;;;;;;;;;;;;;;;8.82;100.00;99905.38;4992566;28;20012;-87
2024/03/19 10:33:23;;;;;;;;;;;;;;;8.33;100.00;99906.94;4992123;28;20408;-86
2024/03/19 10:35:50;;;;;;;;;;;;;;;8.26;100.00;99908.03;4992272;28;19953;-88
2024/03/19 10:38:16;;;;;;;;;;;;;;;8.27;100.00;99902.72;4966576;28;19952;-88
2024/03/19 10:40:41;;;;;;;;;;;;;;;8.22;100.00;99896.72;4992479;28;19921;-88
2024/03/19 10:43:13;;;;;;;;;;;;;;;8.24;100.00;99896.66;4973098;28;20424;-89
2024/03/19 10:45:40;;;;;;;;;;;;;;;8.29;100.00;99898.22;4973678;28;20008;-90
2024/03/19 10:48:08;;;;;;;;;;;;;;;8.31;100.00;99895.53;4992343;28;19922;-91
2024/03/19 10:50:33;;;;;;;;;;;;;;;8.28;100.00;99891.25;4974385;28;20024;-90
2024/03/19 10:53:01;;;;;;;;;;;;;;;8.30;100.00;99899.97;4975073;28;20091;-90
2024/03/19 10:55:27;;;;;;;;;;;;;;;8.30;100.00;99891.19;4975335;28;19930;-91
2024/03/19 10:57:52;;;;;;;;;;;;;;;8.31;100.00;99895.53;4990947;28;19918;-89
2024/03/19 11:00:22;;;;;;;;;;;;;;;8.31;100.00;99898.19;4992011;28;19958;-90
2024/03/19 11:02:51;;;;;;;;;;;;;;;8.31;100.00;99892.91;4991517;28;19930;-90
2024/03/19 11:05:17;;;;;;;;;;;;;;;8.30;100.00;99885.91;4991689;28;19925;-86
2024/03/19 11:07:50;;;;;;;;;;;;;;;8.34;100.00;99874.31;4991376;28;19917;-86
2024/03/19 11:10:28;;;;;;;;;;;;;;;8.35;100.00;99876.91;4991805;28;19925;-89
2024/03/19 11:12:57;;;;;;;;;;;;;;;8.35;100.00;99876.06;4973217;28;19922;-89
2024/03/19 11:15:29;;;;;;;;;;;;;;;8.34;100.00;99869.94;4994822;28;20431;-88
2024/03/19 11:21:08;;;;;;;;;;;;;;;8.42;100.00;99866.16;4976118;28;19925;-90
2024/03/19 11:23:42;;;;;;;;;;;;;;;8.41;100.00;99867.94;4975504;28;20735;-90
2024/03/19 11:26:08;;;;;;;;;;;;;;;8.43;100.00;99868.78;4958957;28;19918;-90
2024/03/19 11:28:36;;;;;;;;;;;;;;;8.44;100.00;99859.97;4974364;28;19929;-83
2024/03/19 11:31:02;;;;;;;;;;;;;;;8.47;100.00;99861.63;4975541;28;19929;-88
2024/03/19 11:33:27;;;;;;;;;;;;;;;8.45;100.00;99856.38;4975307;28;19926;-86
2024/03/19 11:35:53;;;;;;;;;;;;;;;8.45;100.00;99859.03;4975805;28;19928;-86
2024/03/19 11:38:19;;;;;;;;;;;;;;;8.48;100.00;99856.28;4975120;28;19922;-89
2024/03/19 11:40:45;;;;;;;;;;;;;;;8.50;100.00;99858.88;4975520;28;19923;-87
2024/03/19 11:43:14;;;;;;;;;;;;;;;8.51;100.00;99856.19;4974233;28;19922;-85
2024/03/19 11:45:40;;;;;;;;;;;;;;;8.52;100.00;99860.56;4975797;28;19973;-88
2024/03/19 11:48:06;;;;;;;;;;;;;;;8.52;100.00;99851.75;4974930;28;19925;-91
2024/03/19 11:50:31;;;;;;;;;;;;;;;8.58;100.00;99856.00;4975040;28;19922;-87
2024/03/19 11:52:59;;;;;;;;;;;;;;;8.58;100.00;99856.00;4958037;28;19965;-88
2024/03/19 11:55:25;;;;;;;;;;;;;;;8.59;100.00;99853.28;4958152;28;20361;-87
2024/03/19 11:57:50;;;;;;;;;;;;;;;8.58;100.00;99854.19;4973926;28;20282;-88
2024/03/19 12:00:16;;;;;;;;;;;;;;;8.63;100.00;99849.66;4957909;28;19930;-86
2024/03/19 12:02:42;;;;;;;;;;;;;;;8.58;100.00;99851.56;4974659;28;19933;-89
2024/03/19 12:05:12;;;;;;;;;;;;;;;8.57;100.00;99852.50;4974962;28;19944;-90
2024/03/19 12:07:37;;;;;;;;;;;;;;;8.62;100.00;99847.91;4974047;28;19918;-89
2024/03/19 12:10:15;;;;;;;;;;;;;;;8.64;100.00;99842.56;4975192;28;19922;-84
2024/03/19 12:12:41;;;;;;;;;;;;;;;8.66;100.00;99843.38;4969605;28;20317;-88
2024/03/19 12:15:08;;;;;;;;;;;;;;;8.64;100.00;99845.22;4975397;28;19919;-88
2024/03/19 12:17:34;;;;;;;;;;;;;;;8.67;100.00;99851.25;4974778;28;19922;-88
2024/03/19 12:20:00;;;;;;;;;;;;;;;8.68;100.00;99841.53;4974177;28;19957;-88
2024/03/19 12:22:26;;;;;;;;;;;;;;;8.71;100.00;99836.16;4957521;28;20008;-88
2024/03/19 12:25:00;;;;;;;;;;;;;;;8.70;100.00;99832.66;4973269;28;20277;-88
2024/03/19 12:27:26;;;;;;;;;;;;;;;8.75;100.00;99831.66;4973415;28;20397;-84
2024/03/19 12:29:51;;;;;;;;;;;;;;;8.72;100.00;99830.81;4974987;28;20005;-87
2024/03/19 12:32:25;;;;;;;;;;;;;;;8.75;100.00;99831.66;4973696;28;19948;-87
2024/03/19 12:34:58;;;;;;;;;;;;;;;8.76;100.00;99823.69;4956580;28;20330;-87
2024/03/19 12:37:24;;;;;;;;;;;;;;;8.78;100.00;99821.84;4957058;28;19961;-87
2024/03/19 12:39:49;;;;;;;;;;;;;;;8.81;100.00;99818.22;4957422;28;20001;-87
2024/03/19 12:42:15;;;;;;;;;;;;;;;8.80;100.00;99821.78;4973706;28;19922;-88
2024/03/19 12:44:46;;;;;;;;;;;;;;;8.79;100.00;99820.94;4974370;28;19922;-90
2024/03/19 12:47:12;;;;;;;;;;;;;;;8.81;100.00;99819.09;4957348;28;20436;-88
2024/03/19 12:49:39;;;;;;;;;;;;;;;8.85;100.00;99819.84;4973869;28;19997;-88
2024/03/19 12:52:04;;;;;;;;;;;;;;;8.85;100.00;99818.03;4956134;28;20703;-85
2024/03/19 12:54:30;;;;;;;;;;;;;;;8.86;100.00;99814.50;4957271;28;19918;-89
2024/03/19 12:56:55;;;;;;;;;;;;;;;8.88;100.00;99817.94;4955902;28;19926;-85
2024/03/19 12:59:22;;;;;;;;;;;;;;;8.90;100.00;99820.53;4974227;28;20008;-90
2024/03/19 13:01:48;;;;;;;;;;;;;;;8.91;100.00;99817.81;4974261;28;19965;-88
2024/03/19 13:04:13;;;;;;;;;;;;;;;8.90;100.00;99810.84;4973740;28;19930;-88
2024/03/19 13:06:39;;;;;;;;;;;;;;;8.91;100.00;99819.63;4974325;28;19925;-89
2024/03/19 13:09:07;;;;;;;;;;;;;;;8.94;100.00;99811.59;4974248;28;20293;-84
2024/03/19 13:11:33;;;;;;;;;;;;;;;8.93;100.00;99820.41;4972497;28;19918;-89
2024/03/19 13:13:58;;;;;;;;;;;;;;;8.95;100.00;99809.78;4973125;28;19976;-87
2024/03/19 13:16:26;;;;;;;;;;;;;;;8.97;100.00;99810.63;4956699;28;19922;-87
2024/03/19 13:18:51;;;;;;;;;;;;;;;8.97;100.00;99807.97;4971127;28;19922;-88
2024/03/19 13:21:17;;;;;;;;;;;;;;;8.99;100.00;99806.13;4956560;28;19945;-87
2024/03/19 13:23:45;;;;;;;;;;;;;;;9.01;100.00;99801.66;4956617;28;19922;-88
2024/03/19 13:26:21;;;;;;;;;;;;;;;8.99;100.00;99799.06;4973155;28;20368;-88
2024/03/19 13:28:46;;;;;;;;;;;;;;;9.01;100.00;99801.66;4955396;28;19969;-88
2024/03/19 13:31:12;;;;;;;;;;;;;;;9.01;100.00;99802.50;4973886;28;20354;-89
2024/03/19 13:33:37;;;;;;;;;;;;;;;9.03;100.00;99803.34;4955950;28;19929;-90
2024/03/19 13:36:02;;;;;;;;;;;;;;;9.04;100.00;99802.41;4973645;28;19922;-89
2024/03/19 13:38:28;;;;;;;;;;;;;;;9.09;100.00;99804.88;4973040;28;19926;-88
2024/03/19 13:40:53;;;;;;;;;;;;;;;9.09;100.00;99799.59;4955765;28;20013;-88
2024/03/19 13:43:19;;;;;;;;;;;;;;;9.08;100.00;99803.16;4971532;28;20289;-88
2024/03/19 13:45:44;;;;;;;;;;;;;;;9.10;100.00;99793.41;4956229;28;20377;-88
2024/03/19 13:48:09;;;;;;;;;;;;;;;9.12;100.00;99804.75;4956038;28;19922;-85
2024/03/19 13:50:35;;;;;;;;;;;;;;;9.13;100.00;99795.06;4973866;28;19930;-89
2024/03/19 13:53:00;;;;;;;;;;;;;;;9.13;100.00;99803.00;4973752;28;19918;-88
2024/03/19 13:55:31;;;;;;;;;;;;;;;9.14;100.00;99802.91;4973444;28;19926;-88
2024/03/19 13:57:56;;;;;;;;;;;;;;;9.14;100.00;99795.00;4954235;28;19962;-88
2024/03/19 14:00:23;;;;;;;;;;;;;;;9.17;100.00;99794.03;4956368;28;19957;-89
2024/03/19 14:02:48;;;;;;;;;;;;;;;9.18;100.00;99796.63;4973224;28;19922;-88
2024/03/19 14:05:13;;;;;;;;;;;;;;;9.19;100.00;99793.06;4973674;28;19965;-88
2024/03/19 14:07:39;;;;;;;;;;;;;;;9.19;100.00;99795.69;4974083;28;19918;-89
2024/03/19 14:10:05;;;;;;;;;;;;;;;9.21;100.00;99787.72;4956089;28;19965;-89
2024/03/19 14:12:30;;;;;;;;;;;;;;;9.20;100.00;99789.47;4972044;28;19997;-87
2024/03/19 14:14:56;;;;;;;;;;;;;;;9.23;100.00;99791.16;4956365;28;20017;-88
2024/03/19 14:17:21;;;;;;;;;;;;;;;9.21;100.00;99788.56;4956240;28;20301;-88
2024/03/19 14:19:46;;;;;;;;;;;;;;;9.26;100.00;99796.34;4971327;28;19922;-92
2024/03/19 14:22:12;;;;;;;;;;;;;;;9.24;100.00;99788.47;4956077;28;20020;-88
2024/03/19 14:24:44;;;;;;;;;;;;;;;9.29;100.00;99795.38;4971896;28;20033;-87
2024/03/19 14:27:12;;;;;;;;;;;;;;;9.26;100.00;99786.59;4953892;28;19929;-89
2024/03/19 14:29:37;;;;;;;;;;;;;;;9.27;100.00;99784.84;4971427;28;19996;-89
2024/03/19 14:32:03;;;;;;;;;;;;;;;9.30;100.00;99775.91;4955488;28;19918;-90
2024/03/19 14:34:29;;;;;;;;;;;;;;;9.30;100.00;99776.78;4955790;28;19972;-89
2024/03/19 14:36:54;;;;;;;;;;;;;;;9.31;100.00;99775.84;4955824;28;20266;-89
2024/03/19 14:39:19;;;;;;;;;;;;;;;9.31;100.00;99767.94;4972969;28;19926;-88
2024/03/19 14:41:44;;;;;;;;;;;;;;;9.34;100.00;99777.53;4971519;28;19919;-89
2024/03/19 14:44:10;;;;;;;;;;;;;;;9.35;100.00;99773.94;4955939;28;20396;-88
2024/03/19 14:46:36;;;;;;;;;;;;;;;9.36;100.00;99770.41;4972817;28;20065;-88
2024/03/19 14:49:02;;;;;;;;;;;;;;;9.38;100.00;99771.19;4975117;28;20004;-88
2024/03/19 14:51:27;;;;;;;;;;;;;;;9.38;100.00;99768.56;4959119;28;19922;-89
2024/03/19 14:53:52;;;;;;;;;;;;;;;9.38;100.00;99772.06;4976461;28;19965;-89
2024/03/19 14:56:18;;;;;;;;;;;;;;;9.40;100.00;99772.03;4976675;28;19918;-89
2024/03/19 14:58:43;;;;;;;;;;;;;;;9.43;100.00;99771.91;4957909;28;19922;-89
2024/03/19 15:01:08;;;;;;;;;;;;;;;9.42;100.00;99780.75;4976253;28;19922;-89
2024/03/19 15:03:37;;;;;;;;;;;;;;;9.43;100.00;99775.41;4975404;28;19926;-89
2024/03/19 15:06:02;;;;;;;;;;;;;;;9.44;100.00;99785.06;4976226;28;19961;-88
2024/03/19 15:08:27;;;;;;;;;;;;;;;9.41;100.00;99779.00;4976267;28;20016;-89
2024/03/19 15:10:53;;;;;;;;;;;;;;;9.45;100.00;99785.94;4959156;28;19922;-89
2024/03/19 15:13:18;;;;;;;;;;;;;;;9.46;100.00;99782.34;4957409;28;19922;-88
2024/03/19 15:15:44;;;;;;;;;;;;;;;9.44;100.00;99785.06;4975972;28;19962;-88
2024/03/19 15:18:09;;;;;;;;;;;;;;;9.44;100.00;99787.72;4976352;28;19918;-89
2024/03/19 15:20:35;;;;;;;;;;;;;;;9.48;100.00;99775.22;4975919;28;20321;-87
2024/03/19 15:23:02;;;;;;;;;;;;;;;9.47;100.00;99789.38;4975768;28;19922;-88
2024/03/19 15:25:27;;;;;;;;;;;;;;;9.47;100.00;99781.44;4976147;28;19918;-88
2024/03/19 15:27:54;;;;;;;;;;;;;;;9.50;100.00;99772.53;4957896;28;19948;-88
2024/03/19 15:30:19;;;;;;;;;;;;;;;9.50;100.00;99768.09;4976180;28;19918;-89
2024/03/19 15:32:44;;;;;;;;;;;;;;;9.53;100.00;99769.75;4975593;28;19938;-88
2024/03/19 15:35:11;;;;;;;;;;;;;;;9.52;100.00;99763.59;4975599;28;19926;-88
2024/03/19 15:37:36;;;;;;;;;;;;;;;9.52;100.00;99766.25;4975625;28;19926;-88
2024/03/19 15:40:03;;;;;;;;;;;;;;;9.54;100.00;99763.53;4975264;28;19929;-87
2024/03/19 15:42:28;;;;;;;;;;;;;;;9.54;100.00;99767.06;4957303;28;19920;-88
2024/03/19 15:44:54;;;;;;;;;;;;;;;9.52;100.00;99754.81;4958573;28;19949;-87
2024/03/19 15:47:19;;;;;;;;;;;;;;;9.53;100.00;99751.25;4974807;28;19977;-88
2024/03/19 15:49:46;;;;;;;;;;;;;;;9.55;100.00;99758.19;4975890;28;20313;-88
2024/03/19 15:52:11;;;;;;;;;;;;;;;9.55;100.00;99763.47;4975685;28;19922;-87
2024/03/19 15:54:37;;;;;;;;;;;;;;;9.55;100.00;99760.81;4957725;28;19922;-87
2024/03/19 15:57:04;;;;;;;;;;;;;;;9.58;100.00;99763.34;4957100;28;19923;-87
2024/03/19 15:59:29;;;;;;;;;;;;;;;9.59;100.00;99772.19;4975433;28;19926;-88
2024/03/19 16:01:55;;;;;;;;;;;;;;;9.59;100.00;99757.16;4958102;28;19922;-86
2024/03/19 16:04:20;;;;;;;;;;;;;;;9.61;100.00;99760.59;4975477;28;20372;-87
2024/03/19 16:06:46;;;;;;;;;;;;;;;9.58;100.00;99757.22;4957882;28;19937;-88
2024/03/19 16:09:12;;;;;;;;;;;;;;;9.61;100.00;99765.03;4975073;28;20001;-87
2024/03/19 16:11:37;;;;;;;;;;;;;;;9.60;100.00;99763.28;4974060;28;19922;-88
2024/03/19 16:14:03;;;;;;;;;;;;;;;9.62;100.00;99759.69;4957399;28;20289;-88
2024/03/19 16:16:28;;;;;;;;;;;;;;;9.61;100.00;99760.59;4958277;28;20407;-88
2024/03/19 16:18:53;;;;;;;;;;;;;;;9.61;100.00;99755.31;4975280;28;19928;-88
2024/03/19 16:21:18;;;;;;;;;;;;;;;9.64;100.00;99762.28;4974784;28;20393;-87
2024/03/19 16:23:44;;;;;;;;;;;;;;;9.63;100.00;99769.31;4957880;28;19918;-87
2024/03/19 16:26:09;;;;;;;;;;;;;;;9.64;100.00;99765.75;4957136;28;19918;-84
2024/03/19 16:28:34;;;;;;;;;;;;;;;9.66;100.00;99768.34;4973704;28;19925;-83
2024/03/19 16:31:03;;;;;;;;;;;;;;;9.66;100.00;99763.06;4975117;28;19924;-88
2024/03/19 16:33:28;;;;;;;;;;;;;;;9.67;100.00;99762.16;4974588;28;20005;-88
2024/03/19 16:35:55;;;;;;;;;;;;;;;9.68;100.00;99770.94;4957359;28;20009;-88
2024/03/19 16:38:20;;;;;;;;;;;;;;;9.70;100.00;99759.38;4974878;28;19922;-87
2024/03/19 16:40:46;;;;;;;;;;;;;;;9.69;100.00;99767.38;4974956;28;19961;-86
2024/03/19 16:43:11;;;;;;;;;;;;;;;9.69;100.00;99772.66;4956273;28;19953;-88
2024/03/19 16:45:37;;;;;;;;;;;;;;;9.69;100.00;99772.66;4972644;28;19918;-89
2024/03/19 16:48:03;;;;;;;;;;;;;;;9.72;100.00;99768.13;4957503;28;20481;-89
2024/03/19 16:50:29;;;;;;;;;;;;;;;9.71;100.00;99768.16;4957348;28;19922;-89
2024/03/19 16:52:54;;;;;;;;;;;;;;;9.70;100.00;99775.25;4974513;28;19918;-90
2024/03/19 16:55:19;;;;;;;;;;;;;;;9.73;100.00;99772.50;4957016;28;19922;-89
2024/03/19 16:57:47;;;;;;;;;;;;;;;9.75;100.00;99785.66;4973431;28;19930;-86
2024/03/19 17:00:12;;;;;;;;;;;;;;;9.75;100.00;99793.59;4973831;28;19922;-87
2024/03/19 17:02:38;;;;;;;;;;;;;;;9.75;100.00;99793.59;4973539;28;19949;-89
2024/03/19 17:05:03;;;;;;;;;;;;;;;9.74;100.00;99798.00;4956309;28;20289;-87
2024/03/19 17:07:28;;;;;;;;;;;;;;;9.77;100.00;99799.69;4956176;28;19926;-86
2024/03/19 17:09:54;;;;;;;;;;;;;;;9.74;100.00;99784.78;4973447;28;19922;-89
2024/03/19 17:12:19;;;;;;;;;;;;;;;9.76;100.00;99790.88;4970771;28;19941;-87
2024/03/19 17:14:44;;;;;;;;;;;;;;;9.77;100.00;99800.53;4973333;28;19929;-87
2024/03/19 17:17:09;;;;;;;;;;;;;;;9.78;100.00;99804.91;4973376;28;20413;-84
2024/03/19 17:19:35;;;;;;;;;;;;;;;9.77;100.00;99797.91;4973187;28;19922;-88
2024/03/19 17:22:08;;;;;;;;;;;;;;;9.78;100.00;99804.91;4956092;28;19925;-87
2024/03/19 17:24:38;;;;;;;;;;;;;;;9.78;100.00;99798.75;4955501;28;19925;-87
2024/03/19 17:27:19;;;;;;;;;;;;;;;;;;;;;
2024/03/19 17:29:44;;;;;;;;;;;;;;;9.80;100.00;99807.50;4972957;28;20378;-85
2024/03/19 17:32:20;;;;;;;;;;;;;;;9.78;100.00;99802.28;4973005;28;20021;-88
2024/03/19 17:34:46;;;;;;;;;;;;;;;9.80;100.00;99815.44;4972907;28;20012;-88
2024/03/19 17:37:11;;;;;;;;;;;;;;;9.80;100.00;99804.84;4972184;28;20012;-88
2024/03/19 17:39:36;;;;;;;;;;;;;;;9.81;100.00;99807.44;4955536;28;20297;-85
2024/03/19 17:42:03;;;;;;;;;;;;;;;9.82;100.00;99821.53;4971751;28;19922;-88
2024/03/19 17:44:28;;;;;;;;;;;;;;;9.81;100.00;99825.97;4972930;28;19917;-88
2024/03/19 17:46:54;;;;;;;;;;;;;;;9.82;100.00;99817.09;4955695;28;20432;-88
2024/03/19 17:49:19;;;;;;;;;;;;;;;9.83;100.00;99817.97;4972742;28;20380;-88
2024/03/19 17:51:45;;;;;;;;;;;;;;;9.84;100.00;99810.88;4955609;28;19922;-89
2024/03/19 17:54:11;;;;;;;;;;;;;;;9.84;100.00;99817.03;4955323;28;19919;-89
2024/03/19 17:56:36;;;;;;;;;;;;;;;9.86;100.00;99817.84;4954211;28;20384;-88
2024/03/19 17:59:13;;;;;;;;;;;;;;;;;;;;;
2024/03/19 18:01:39;;;;;;;;;;;;;;;9.86;100.00;99822.25;4973278;28;19922;-88
2024/03/19 18:04:05;;;;;;;;;;;;;;;9.87;100.00;99826.66;4956071;28;19926;-89
2024/03/19 18:06:30;;;;;;;;;;;;;;;9.87;100.00;99829.28;4956034;28;19922;-88
2024/03/19 18:08:55;;;;;;;;;;;;;;;9.89;100.00;99833.63;4956135;28;19926;-87
2024/03/19 18:11:20;;;;;;;;;;;;;;;9.89;100.00;99833.63;4955974;28;19924;-88
2024/03/19 18:13:48;;;;;;;;;;;;;;;9.89;100.00;99838.91;4972048;28;20035;-88
2024/03/19 18:16:13;;;;;;;;;;;;;;;9.90;100.00;99840.63;4955941;28;19918;-90
2024/03/19 18:18:38;;;;;;;;;;;;;;;9.89;100.00;99844.19;4973212;28;19929;-89
2024/03/19 18:21:04;;;;;;;;;;;;;;;9.90;100.00;99843.25;4956245;28;20322;-88
2024/03/19 18:23:30;;;;;;;;;;;;;;;9.91;100.00;99845.00;4956020;28;19964;-90
2024/03/19 18:25:55;;;;;;;;;;;;;;;9.91;100.00;99846.78;4973621;28;19964;-89
2024/03/19 18:28:20;;;;;;;;;;;;;;;9.92;100.00;99848.50;4954664;28;19918;-89
2024/03/19 18:30:46;;;;;;;;;;;;;;;9.92;100.00;99844.06;4973296;28;20341;-91
2024/03/19 18:33:15;;;;;;;;;;;;;;;9.93;100.00;99851.09;4955880;28;19980;-86
2024/03/19 18:35:47;;;;;;;;;;;;;;;9.93;100.00;99856.38;4973172;28;20492;-90
2024/03/19 18:38:28;;;;;;;;;;;;;;;9.91;100.00;99857.38;4972917;28;19918;-90
2024/03/19 18:40:58;;;;;;;;;;;;;;;9.94;100.00;99854.59;4972967;28;19926;-90
2024/03/19 18:43:23;;;;;;;;;;;;;;;9.95;100.00;99859.81;4971667;28;19945;-91
2024/03/19 18:45:56;;;;;;;;;;;;;;;9.94;100.00;99855.47;4955604;28;19922;-92
2024/03/19 18:48:21;;;;;;;;;;;;;;;9.94;100.00;99852.81;4972986;28;19926;-90
2024/03/19 18:50:47;;;;;;;;;;;;;;;9.94;100.00;99851.94;4973204;28;20317;-87
2024/03/19 18:53:12;;;;;;;;;;;;;;;9.95;100.00;99854.53;4973022;28;19925;-92
2024/03/19 18:55:37;;;;;;;;;;;;;;;9.95;100.00;99857.16;4972869;28;19922;-93
2024/03/19 18:58:02;;;;;;;;;;;;;;;9.97;100.00;99859.75;4954291;28;20286;-89
2024/03/19 19:00:30;;;;;;;;;;;;;;;9.96;100.00;99861.56;4972683;28;20378;-85
2024/03/19 19:02:55;;;;;;;;;;;;;;;9.98;100.00;99859.69;4972825;28;19918;-87
2024/03/19 19:05:47;;;;;;;;;;;;;;;9.97;100.00;99858.00;4972970;28;19992;-89
2024/03/19 19:08:13;;;;;;;;;;;;;;;9.99;100.00;99864.09;4949033;28;19926;-88
2024/03/19 19:10:39;;;;;;;;;;;;;;;9.98;100.00;99864.13;4972908;28;19965;-86
2024/03/19 19:13:04;;;;;;;;;;;;;;;9.97;100.00;99858.00;4971402;28;20293;-87
2024/03/19 19:15:30;;;;;;;;;;;;;;;9.99;100.00;99858.78;4972933;28;19949;-92
2024/03/19 19:17:57;;;;;;;;;;;;;;;9.94;100.00;99858.13;4972933;28;19929;-92
2024/03/19 19:20:23;;;;;;;;;;;;;;;9.96;100.00;99866.84;4974531;28;19965;-87
2024/03/19 19:22:48;;;;;;;;;;;;;;;9.97;100.00;99868.59;4972606;28;19921;-88
2024/03/19 19:25:13;;;;;;;;;;;;;;;9.98;100.00;99867.63;4972671;28;19922;-90
2024/03/19 19:27:39;;;;;;;;;;;;;;;9.98;100.00;99866.78;4970597;28;19919;-86
2024/03/19 19:30:05;;;;;;;;;;;;;;;9.97;100.00;99871.22;4955257;28;20370;-90
2024/03/19 19:32:30;;;;;;;;;;;;;;;10.00;100.00;99867.59;4971865;28;19972;-87
2024/03/19 19:34:56;;;;;;;;;;;;;;;10.02;100.00;99878.09;4957228;28;19926;-83
2024/03/19 19:37:21;;;;;;;;;;;;;;;10.01;100.00;99871.97;4975864;28;20034;-91
2024/03/19 19:39:47;;;;;;;;;;;;;;;10.02;100.00;99873.69;4959286;28;20397;-87
2024/03/19 19:42:12;;;;;;;;;;;;;;;10.03;100.00;99878.06;4961716;28;20373;-92
2024/03/19 19:44:59;;;;;;;;;;;;;;;;;;;;;
2024/03/19 19:47:32;;;;;;;;;;;;;;;10.04;100.00;99879.78;4976487;28;20231;-90
2024/03/19 19:50:00;;;;;;;;;;;;;;;10.05;100.00;99880.63;4978602;28;20365;-90
2024/03/19 19:52:26;;;;;;;;;;;;;;;10.06;100.00;99879.72;4962067;28;20005;-93
2024/03/19 19:54:51;;;;;;;;;;;;;;;10.06;100.00;99879.72;4978102;28;20004;-95
2024/03/19 19:57:19;;;;;;;;;;;;;;;10.07;100.00;99886.72;4961559;28;20281;-88
2024/03/19 19:59:47;;;;;;;;;;;;;;;10.06;100.00;99888.53;4977964;28;20390;-90
2024/03/19 20:02:19;;;;;;;;;;;;;;;10.07;100.00;99889.38;4976106;28;19925;-91
2024/03/19 20:04:50;;;;;;;;;;;;;;;10.08;100.00;99896.41;4958597;28;19929;-91
2024/03/19 20:07:18;;;;;;;;;;;;;;;10.10;100.00;99899.84;4963547;28;19918;-93
2024/03/19 20:09:43;;;;;;;;;;;;;;;10.08;100.00;99899.06;4963273;28;20341;-93
2024/03/19 20:12:09;;;;;;;;;;;;;;;10.08;100.00;99896.41;4976800;28;19953;-95
2024/03/19 20:14:34;;;;;;;;;;;;;;;10.11;100.00;99904.22;4976043;28;19922;-84
2024/03/19 20:17:09;;;;;;;;;;;;;;;10.11;100.00;99901.59;4975922;28;19934;-87
2024/03/19 20:19:35;;;;;;;;;;;;;;;10.09;100.00;99906.09;4957240;28;20353;-88
2024/03/19 20:22:01;;;;;;;;;;;;;;;10.11;100.00;99901.59;4975318;28;20493;-93
2024/03/19 20:24:37;;;;;;;;;;;;;;;10.12;100.00;99904.16;4975023;28;19926;-91
2024/03/19 20:27:02;;;;;;;;;;;;;;;10.11;100.00;99897.13;4973697;28;19925;-86
2024/03/19 20:29:28;;;;;;;;;;;;;;;10.11;100.00;99902.44;4974950;28;20087;-91
2024/03/19 20:31:54;;;;;;;;;;;;;;;10.13;100.00;99902.38;4957062;28;19925;-94
2024/03/19 20:34:21;;;;;;;;;;;;;;;10.14;100.00;99901.47;4975074;28;19922;-91
2024/03/19 20:36:47;;;;;;;;;;;;;;;10.15;100.00;99911.16;4974185;28;19922;-95
2024/03/19 20:39:15;;;;;;;;;;;;;;;10.15;100.00;99911.16;4975043;28;19941;-84
2024/03/19 20:41:43;;;;;;;;;;;;;;;10.14;100.00;99909.41;4973666;28;19925;-90
2024/03/19 20:44:10;;;;;;;;;;;;;;;10.14;100.00;99912.06;4974601;28;20369;-88
2024/03/19 20:46:36;;;;;;;;;;;;;;;10.18;100.00;99905.72;4973070;28;19918;-89
2024/03/19 20:49:01;;;;;;;;;;;;;;;10.17;100.00;99909.28;4974591;28;19937;-90
2024/03/19 20:51:26;;;;;;;;;;;;;;;10.16;100.00;99904.91;4974550;28;19929;-88
2024/03/19 20:53:52;;;;;;;;;;;;;;;10.17;100.00;99911.94;4973058;28;19965;-90
2024/03/19 20:56:17;;;;;;;;;;;;;;;10.18;100.00;99908.38;4974540;28;19922;-91
2024/03/19 20:58:45;;;;;;;;;;;;;;;10.20;100.00;99911.81;4955695;28;20294;-90
2024/03/19 21:01:13;;;;;;;;;;;;;;;10.18;100.00;99917.19;5146367;23;19937;-89
2024/03/19 21:03:39;;;;;;;;;;;;;;;10.16;100.00;99910.19;4991714;28;19921;-90
2024/03/19 21:06:04;;;;;;;;;;;;;;;10.15;100.00;99916.44;4992634;28;19964;-91
2024/03/19 21:08:34;;;;;;;;;;;;;;;10.15;100.00;99904.06;4992268;28;19927;-92
2024/03/19 21:10:59;;;;;;;;;;;;;;;10.17;100.00;99909.28;4992952;28;19929;-87
2024/03/19 21:13:24;;;;;;;;;;;;;;;10.19;100.00;99907.44;4992485;28;20112;-85
2024/03/19 21:15:50;;;;;;;;;;;;;;;10.19;100.00;99904.78;4994078;28;20012;-93
2024/03/19 21:18:15;;;;;;;;;;;;;;;10.19;100.00;99910.09;4993206;28;20393;-90
2024/03/19 21:20:41;;;;;;;;;;;;;;;10.21;100.00;99913.56;4993301;28;19961;-92
2024/03/19 21:23:09;;;;;;;;;;;;;;;10.20;100.00;99909.16;4993548;28;19958;-89
2024/03/19 21:25:34;;;;;;;;;;;;;;;10.21;100.00;99907.38;4993390;28;19941;-84
2024/03/19 21:27:59;;;;;;;;;;;;;;;10.20;100.00;99903.03;4992048;28;19918;-84
2024/03/19 21:30:25;;;;;;;;;;;;;;;10.19;100.00;99902.13;4993298;28;19918;-90
2024/03/19 21:32:50;;;;;;;;;;;;;;;10.21;100.00;99904.72;4993121;28;19985;-88
2024/03/19 21:35:15;;;;;;;;;;;;;;;10.21;100.00;99908.25;4993322;28;19914;-89